createdAt,value
2022-10-05T00:07:30.353Z,8.04
2022-10-05T00:17:33.902Z,7.95
2022-10-05T00:22:35.228Z,7.87
2022-10-05T00:27:37.139Z,7.81
2022-10-05T00:32:38.916Z,7.77
2022-10-05T00:37:40.535Z,7.71
2022-10-05T00:42:41.813Z,7.62
2022-10-05T00:47:43.481Z,7.61
2022-10-05T00:52:45.613Z,7.58
2022-10-05T00:57:47.382Z,7.53
2022-10-05T01:02:48.875Z,7.51
2022-10-05T01:07:50.180Z,7.5
2022-10-05T01:12:52.110Z,7.49
2022-10-05T01:17:54.176Z,7.44
2022-10-05T01:22:55.423Z,7.46
2022-10-05T01:27:57.186Z,7.46
2022-10-05T01:32:58.546Z,7.42
2022-10-05T01:38:00.769Z,7.43
2022-10-05T01:43:02.640Z,7.43
2022-10-05T01:48:04.290Z,7.41
2022-10-05T01:53:06.227Z,7.39
2022-10-05T01:58:07.487Z,7.39
2022-10-05T02:03:08.938Z,7.38
2022-10-05T02:08:10.190Z,7.32
2022-10-05T02:13:12.224Z,7.34
2022-10-05T02:18:14.218Z,7.32
2022-10-05T02:23:15.552Z,7.26
2022-10-05T02:28:17.793Z,7.21
2022-10-05T02:33:19.632Z,7.2
2022-10-05T02:38:21.017Z,7.2
2022-10-05T02:43:22.324Z,7.15
2022-10-05T02:48:24.241Z,7.1
2022-10-05T02:53:25.424Z,7.08
2022-10-05T02:58:26.730Z,7.03
2022-10-05T03:03:28.441Z,7.02
2022-10-05T03:08:30.028Z,7.01
2022-10-05T03:13:31.416Z,6.99
2022-10-05T03:18:33.110Z,6.98
2022-10-05T03:23:34.602Z,6.98
2022-10-05T03:28:36.586Z,6.95
2022-10-05T03:33:38.126Z,6.86
2022-10-05T03:38:40.152Z,6.86
2022-10-05T03:43:42.343Z,6.85
2022-10-05T03:48:43.730Z,6.79
2022-10-05T03:53:45.242Z,6.76
2022-10-05T03:58:47.018Z,6.71
2022-10-05T04:03:49.028Z,6.69
2022-10-05T04:08:50.182Z,6.64
2022-10-05T04:13:52.207Z,6.64
2022-10-05T04:18:54.358Z,6.63
2022-10-05T04:23:56.145Z,6.57
2022-10-05T04:28:57.498Z,6.53
2022-10-05T04:33:59.442Z,6.49
2022-10-05T04:39:00.744Z,6.44
2022-10-05T04:44:02.618Z,6.36
2022-10-05T04:49:03.991Z,6.33
2022-10-05T04:54:05.428Z,6.33
2022-10-05T04:59:07.025Z,6.3
2022-10-05T05:04:08.890Z,6.31
2022-10-05T05:09:10.570Z,6.32
2022-10-05T05:14:12.574Z,6.31
2022-10-05T05:19:14.732Z,6.29
2022-10-05T05:19:21.003Z,6.29
2022-10-05T05:24:22.546Z,6.3
2022-10-05T05:29:24.062Z,6.31
2022-10-05T05:34:25.878Z,6.32
2022-10-05T05:39:27.545Z,6.36
2022-10-05T05:44:28.773Z,6.41
2022-10-05T05:49:30.548Z,6.45
2022-10-05T05:54:32.639Z,6.59
2022-10-05T05:59:34.225Z,6.89
2022-10-05T06:04:36.337Z,7.15
2022-10-05T06:09:37.563Z,7.31
2022-10-05T06:14:38.970Z,7.36
2022-10-05T06:19:40.521Z,7.52
2022-10-05T06:24:42.134Z,7.71
2022-10-05T06:29:44.227Z,7.98
2022-10-05T06:34:46.321Z,8.22
2022-10-05T06:39:48.184Z,8.49
2022-10-05T06:44:49.985Z,8.8
2022-10-05T06:49:51.380Z,9.18
2022-10-05T06:54:52.842Z,9.37
2022-10-05T06:59:54.555Z,9.58
2022-10-05T07:04:55.880Z,9.83
2022-10-05T07:09:57.826Z,10.29
2022-10-05T07:14:59.321Z,10.81
2022-10-05T07:20:01.311Z,11.6
2022-10-05T07:25:03.045Z,12.12
2022-10-05T07:30:04.593Z,12.4
2022-10-05T07:35:06.708Z,13.11
2022-10-05T07:40:07.976Z,13.58
2022-10-05T07:45:09.968Z,13.77
2022-10-05T07:50:12.230Z,14.06
2022-10-05T07:55:14.261Z,14.47
2022-10-05T08:00:16.291Z,14.92
2022-10-05T08:05:18.451Z,15.5
2022-10-05T08:10:19.573Z,15.99
2022-10-05T08:15:21.346Z,16.07
2022-10-05T08:20:23.176Z,16.49
2022-10-05T08:25:24.847Z,17.02
2022-10-05T08:30:26.709Z,17.02
2022-10-05T08:35:28.822Z,17.17
2022-10-05T08:40:30.136Z,17.37
2022-10-05T08:45:31.401Z,17.6
2022-10-05T08:50:33.476Z,18.02
2022-10-05T08:55:35.314Z,18.29
2022-10-05T09:00:36.631Z,18.58
2022-10-05T09:05:38.283Z,18.9
2022-10-05T09:10:40.378Z,19.21
2022-10-05T09:15:42.428Z,19.94
2022-10-05T09:20:44.142Z,20.88
2022-10-05T09:25:45.249Z,21.7
2022-10-05T09:30:46.861Z,22.81
2022-10-05T09:35:48.730Z,24.19
2022-10-05T09:40:50.292Z,25.6
2022-10-05T09:45:51.585Z,26.95
2022-10-05T09:50:53.176Z,27.42
2022-10-05T09:55:54.868Z,28.68
2022-10-05T10:01:03.567Z,28.41
2022-10-05T10:05:58.474Z,28.65
2022-10-05T10:11:00.109Z,28.86
2022-10-05T10:16:01.970Z,29.1
2022-10-05T10:21:02.956Z,29.22
2022-10-05T10:26:04.811Z,29.09
2022-10-05T10:31:06.942Z,28.79
2022-10-05T10:36:08.932Z,28.95
2022-10-05T10:41:10.820Z,29.04
2022-10-05T10:46:12.815Z,28.96
2022-10-05T10:51:14.597Z,28.63
2022-10-05T10:56:16.305Z,28.53
2022-10-05T11:01:17.745Z,28.34
2022-10-05T11:06:19.769Z,28.29
2022-10-05T11:11:21.157Z,27.45
2022-10-05T11:16:22.668Z,27.03
2022-10-05T11:21:23.971Z,27.28
2022-10-05T11:26:25.196Z,26.9
2022-10-05T11:31:27.041Z,26.61
2022-10-05T11:36:28.258Z,25.92
2022-10-05T11:41:30.293Z,25.86
2022-10-05T11:46:32.322Z,25.3
2022-10-05T11:51:34.106Z,25.01
2022-10-05T11:56:35.466Z,24.64
2022-10-05T12:01:37.187Z,24.42
2022-10-05T12:06:38.678Z,24.37
2022-10-05T12:11:40.667Z,24.34
2022-10-05T12:16:42.233Z,24.1
2022-10-05T12:21:43.380Z,24.05
2022-10-05T12:26:45.146Z,23.95
2022-10-05T12:31:46.887Z,23.61
2022-10-05T12:37:04.903Z,23.46
2022-10-05T12:41:50.341Z,23.47
2022-10-05T12:46:51.574Z,23.46
2022-10-05T12:51:53.684Z,23.52
2022-10-05T12:56:55.313Z,23.53
2022-10-05T13:01:57.472Z,23.53
2022-10-05T13:06:59.016Z,23.47
2022-10-05T13:12:00.360Z,23.55
2022-10-05T13:42:09.784Z,23.85
2022-10-05T14:22:21.469Z,23.61
2022-10-05T14:27:23.515Z,23.67
2022-10-05T14:32:25.322Z,23.66
2022-10-05T14:37:27.396Z,23.59
2022-10-05T14:42:28.669Z,23.57
2022-10-05T14:47:30.153Z,23.53
2022-10-05T14:52:31.864Z,23.46
2022-10-05T14:57:33.146Z,23.38
2022-10-05T15:02:34.972Z,23.27
2022-10-05T15:07:36.439Z,23.22
2022-10-05T15:12:38.116Z,23.17
2022-10-05T15:17:40.250Z,23.09
2022-10-05T15:22:42.234Z,23.02
2022-10-05T15:27:43.662Z,22.9
2022-10-05T15:32:45.345Z,22.76
2022-10-05T15:37:46.765Z,22.69
2022-10-05T15:42:47.972Z,22.6
2022-10-05T15:47:49.235Z,22.44
2022-10-05T15:52:51.322Z,22.34
2022-10-05T15:57:52.945Z,22.17
2022-10-05T16:02:55.008Z,22.03
2022-10-05T16:07:56.906Z,21.94
2022-10-05T16:12:58.689Z,21.78
2022-10-05T16:18:00.813Z,21.66
2022-10-05T16:23:02.626Z,21.56
2022-10-05T16:28:05.613Z,21.42
2022-10-05T16:33:05.561Z,21.31
2022-10-05T16:38:07.467Z,21.18
2022-10-05T16:43:08.710Z,21
2022-10-05T16:48:10.659Z,20.87
2022-10-05T16:53:12.265Z,20.69
2022-10-05T16:58:14.043Z,20.48
2022-10-05T17:03:15.969Z,20.32
2022-10-05T17:08:17.531Z,20.09
2022-10-05T17:13:18.881Z,19.79
2022-10-05T17:18:21.214Z,19.62
2022-10-05T17:23:22.605Z,19.37
2022-10-05T17:28:24.728Z,19.04
2022-10-05T17:33:25.695Z,18.87
2022-10-05T17:38:27.923Z,18.68
2022-10-05T17:43:29.093Z,18.35
2022-10-05T17:48:31.018Z,18.2
2022-10-05T17:53:33.037Z,18.03
2022-10-05T17:58:34.713Z,17.74
2022-10-05T18:03:36.098Z,17.58
2022-10-05T18:08:37.586Z,17.44
2022-10-05T18:13:38.840Z,17.25
2022-10-05T18:18:40.525Z,17.07
2022-10-05T18:23:42.488Z,16.96
2022-10-05T18:28:43.856Z,16.83
2022-10-05T18:33:45.666Z,16.65
2022-10-05T18:38:47.124Z,16.54
2022-10-05T18:43:49.037Z,16.45
2022-10-05T18:48:50.825Z,16.28
2022-10-05T18:53:52.423Z,16.2
2022-10-05T18:58:56.836Z,16.14
2022-10-05T19:03:55.699Z,16.02
2022-10-05T19:08:57.389Z,15.91
2022-10-05T19:13:58.947Z,15.85
2022-10-05T19:19:01.042Z,15.77
2022-10-05T19:24:02.964Z,15.65
2022-10-05T19:29:04.105Z,15.6
2022-10-05T19:34:05.382Z,15.55
2022-10-05T19:39:06.758Z,15.44
2022-10-05T19:44:08.101Z,15.37
2022-10-05T19:49:09.356Z,15.32
2022-10-05T19:54:10.806Z,15.21
2022-10-05T19:59:12.576Z,15.13
2022-10-05T20:04:14.016Z,15.08
2022-10-05T20:09:16.181Z,15.02
2022-10-05T20:14:17.536Z,14.9
2022-10-05T20:19:19.014Z,14.86
2022-10-05T20:24:20.665Z,14.83
2022-10-05T20:29:22.563Z,14.78
2022-10-05T20:34:24.408Z,14.75
2022-10-05T20:39:26.234Z,14.74
2022-10-05T20:44:27.398Z,14.72
2022-10-05T20:49:28.588Z,14.69
2022-10-05T20:54:30.616Z,14.68
2022-10-05T20:59:32.314Z,14.63
2022-10-05T21:04:39.972Z,14.57
2022-10-05T21:09:35.527Z,14.53
2022-10-05T21:14:36.832Z,14.47
2022-10-05T21:19:38.868Z,14.32
2022-10-05T21:24:40.380Z,14.31
2022-10-05T21:29:41.905Z,14.28
2022-10-05T21:34:43.120Z,14.19
2022-10-05T21:39:44.351Z,14.11
2022-10-05T21:44:45.637Z,14.07
2022-10-05T21:49:47.294Z,13.98
2022-10-05T21:54:49.294Z,13.88
2022-10-05T21:59:50.848Z,13.84
2022-10-05T22:15:01.952Z,13.63
2022-10-05T22:20:03.441Z,13.61
2022-10-05T22:25:05.369Z,13.51
2022-10-05T22:30:07.055Z,13.44
2022-10-05T22:35:11.455Z,13.42
2022-10-05T22:40:10.066Z,13.37
2022-10-05T22:45:11.256Z,13.26
2022-10-05T22:50:12.676Z,13.21
2022-10-05T22:55:14.278Z,13.17
2022-10-05T23:00:16.330Z,13.08
2022-10-05T23:05:17.756Z,13.04
2022-10-05T23:10:19.840Z,12.97
2022-10-05T23:15:21.549Z,12.88
2022-10-05T23:20:22.703Z,12.82
2022-10-05T23:25:24.827Z,12.79
2022-10-05T23:30:26.296Z,12.74
2022-10-05T23:35:27.725Z,12.65
2022-10-05T23:40:29.758Z,12.61
2022-10-05T23:45:30.980Z,12.58
2022-10-05T23:50:33.134Z,12.49
2022-10-05T23:55:34.746Z,12.46
